Time;durP1;ratioP1;P1;durP2;ratioP2;P2;SDS_P1;SDS_P2;PMS_P1;PMS_P2;Temp;Humidity;BMP_temperature;BMP_pressure;BME280_temperature;BME280_humidity;BME280_pressure;Samples;Min_cycle;Max_cycle;Signal;HPM_P1;HPM_P2
2022/08/24 00:02:10;;;;;;;10.93;7.53;;;;;;;20.57;69.50;95217.72;5045125;28;20411;-83
2022/08/24 00:04:35;;;;;;;9.48;7.60;;;;;;;20.47;69.71;95231.16;5045320;28;20397;-83
2022/08/24 00:07:01;;;;;;;11.43;7.35;;;;;;;20.43;70.06;95232.72;5045034;28;20060;-83
2022/08/24 00:09:27;;;;;;;10.35;7.82;;;;;;;20.42;69.94;95231.06;5045316;28;20029;-83
2022/08/24 00:11:53;;;;;;;12.38;7.80;;;;;;;20.44;69.69;95234.38;5045734;28;20032;-82
2022/08/24 00:14:18;;;;;;;9.18;7.28;;;;;;;20.40;69.69;95234.03;5045102;28;20422;-82
2022/08/24 00:16:44;;;;;;;9.48;7.72;;;;;;;20.43;69.26;95238.16;5045738;28;20462;-82
2022/08/24 00:19:10;;;;;;;12.35;7.32;;;;;;;20.39;69.02;95240.56;5044748;28;20033;-84
2022/08/24 00:21:35;;;;;;;10.20;7.38;;;;;;;20.31;69.15;95241.78;5047570;28;20029;-83
2022/08/24 00:24:01;;;;;;;11.93;7.30;;;;;;;20.30;69.83;95234.69;5049059;28;20032;-84
2022/08/24 00:26:26;;;;;;;8.48;7.25;;;;;;;20.28;69.88;95236.81;5047265;28;20025;-83
2022/08/24 00:28:52;;;;;;;10.05;7.25;;;;;;;20.30;69.42;95240.13;5048933;28;20036;-84
2022/08/24 00:31:18;;;;;;;9.63;7.40;;;;;;;20.21;69.76;95236.97;5048857;28;20511;-82
2022/08/24 00:33:43;;;;;;;10.43;7.80;;;;;;;20.21;70.07;95236.97;5049124;28;20025;-83
2022/08/24 00:36:09;;;;;;;14.70;7.68;;;;;;;20.26;69.91;95241.69;5048590;28;20025;-84
2022/08/24 00:38:34;;;;;;;15.73;7.95;;;;;;;20.22;69.73;95235.91;5049148;28;20075;-84
2022/08/24 00:41:00;;;;;;;11.88;7.85;;;;;;;20.18;69.90;95232.03;5048516;28;20120;-83
2022/08/24 00:43:25;;;;;;;10.57;7.85;;;;;;;20.23;69.71;95234.81;5049086;28;20021;-83
2022/08/24 00:46:17;;;;;;;8.50;6.93;;;;;;;20.17;69.98;95240.44;5048035;28;20404;-83
2022/08/24 00:48:44;;;;;;;10.13;7.93;;;;;;;20.16;69.72;95241.47;5047199;28;20044;-84
2022/08/24 00:51:23;;;;;;;11.63;7.57;;;;;;;20.17;69.75;95246.69;5031611;28;20029;-84
2022/08/24 00:53:52;;;;;;;12.40;7.88;;;;;;;20.17;69.80;95245.88;5030295;28;20036;-84
2022/08/24 00:56:24;;;;;;;11.73;8.50;;;;;;;20.18;69.81;95242.06;5049050;28;20029;-84
2022/08/24 00:59:01;;;;;;;12.15;8.35;;;;;;;20.16;70.08;95245.03;5030684;28;20033;-84
2022/08/24 01:01:26;;;;;;;11.75;8.45;;;;;;;20.17;70.27;95257.56;5031027;28;20167;-84
2022/08/24 01:03:53;;;;;;;11.75;8.30;;;;;;;20.12;70.55;95250.13;5048931;28;20036;-84
2022/08/24 01:06:18;;;;;;;11.15;8.00;;;;;;;20.08;70.39;95242.69;5046978;28;20021;-84
2022/08/24 01:08:44;;;;;;;11.00;8.00;;;;;;;20.08;70.17;95245.41;5048850;28;20029;-84
2022/08/24 01:11:13;;;;;;;13.27;8.55;;;;;;;20.05;70.31;95249.47;5048279;28;20048;-84
2022/08/24 01:13:40;;;;;;;10.98;8.02;;;;;;;20.06;70.42;95250.28;5030726;28;20116;-84
2022/08/24 01:16:07;;;;;;;12.52;8.07;;;;;;;20.00;70.86;95258.31;5030563;28;20085;-84
2022/08/24 01:18:50;;;;;;;10.18;8.43;;;;;;;19.95;70.91;95263.66;5030659;28;20047;-83
2022/08/24 01:21:37;;;;;;;11.82;8.40;;;;;;;19.96;70.97;95261.75;5047732;28;20025;-83
2022/08/24 01:24:04;;;;;;;11.68;8.50;;;;;;;20.03;70.48;95264.38;5046280;28;20555;-83
2022/08/24 01:26:34;;;;;;;11.23;7.70;;;;;;;20.01;70.79;95267.31;5048693;28;20028;-83
2022/08/24 01:29:08;;;;;;;11.88;8.45;;;;;;;19.97;70.82;95275.13;5030345;28;20022;-83
2022/08/24 01:31:33;;;;;;;10.55;7.88;;;;;;;19.83;71.14;95274.56;5046526;28;20031;-83
2022/08/24 01:33:59;;;;;;;12.02;8.50;;;;;;;19.74;71.69;95278.72;5048326;28;20423;-84
2022/08/24 01:36:35;;;;;;;14.27;8.57;;;;;;;19.67;72.18;95276.13;5047985;28;20082;-83
2022/08/24 01:39:09;;;;;;;11.68;8.43;;;;;;;19.80;71.94;95282.41;5048810;28;20036;-83
2022/08/24 01:41:34;;;;;;;11.10;8.80;;;;;;;19.80;72.21;95285.94;5030936;28;20553;-84
2022/08/24 01:44:00;;;;;;;10.70;8.20;;;;;;;19.79;72.38;95284.28;5048159;28;20033;-83
2022/08/24 01:46:25;;;;;;;11.05;8.55;;;;;;;19.72;72.42;95280.84;5048189;28;20071;-84
2022/08/24 01:48:51;;;;;;;12.07;8.88;;;;;;;19.70;72.54;95272.13;5047786;28;20029;-84
2022/08/24 01:51:16;;;;;;;12.48;8.73;;;;;;;19.72;72.08;95272.69;5048063;28;20064;-83
2022/08/24 01:53:42;;;;;;;13.85;9.07;;;;;;;19.74;71.96;95276.00;5047515;28;20381;-84
2022/08/24 01:56:07;;;;;;;10.20;7.65;;;;;;;19.72;72.04;95272.69;5048282;28;20033;-84
2022/08/24 01:58:32;;;;;;;13.35;8.50;;;;;;;19.72;72.00;95272.69;5047141;28;20411;-84
2022/08/24 02:00:58;;;;;;;15.27;9.25;;;;;;;19.72;71.92;95273.53;5047892;28;20029;-84
2022/08/24 02:03:23;;;;;;;12.77;9.07;;;;;;;19.69;72.23;95273.16;5045617;28;20029;-83
2022/08/24 02:05:50;;;;;;;12.05;8.93;;;;;;;19.66;72.38;95282.63;5047701;28;20029;-84
2022/08/24 02:08:16;;;;;;;12.85;9.05;;;;;;;19.61;72.25;95294.25;5046706;28;20510;-84
2022/08/24 02:10:41;;;;;;;12.32;9.00;;;;;;;19.63;72.38;95297.56;5047624;28;20060;-84
2022/08/24 02:13:07;;;;;;;14.63;8.98;;;;;;;19.52;72.83;95296.47;5047702;28;20032;-84
2022/08/24 02:15:38;;;;;;;14.77;9.25;;;;;;;19.48;73.17;95300.75;5045995;28;20044;-84
2022/08/24 02:18:04;;;;;;;14.88;9.73;;;;;;;19.48;73.39;95300.75;5047504;28;20342;-84
2022/08/24 02:20:30;;;;;;;18.35;9.57;;;;;;;19.58;73.02;95304.75;5047371;28;20045;-84
2022/08/24 02:22:55;;;;;;;12.55;9.23;;;;;;;19.64;73.16;95310.09;5047334;28;20040;-83
2022/08/24 02:25:22;;;;;;;14.55;10.07;;;;;;;19.67;73.04;95305.25;5046589;28;20392;-84
2022/08/24 02:27:48;;;;;;;13.30;9.27;;;;;;;19.62;72.66;95314.09;5046688;28;20037;-84
2022/08/24 02:30:13;;;;;;;14.43;10.10;;;;;;;19.48;73.40;95311.63;5046566;28;20025;-84
2022/08/24 02:32:39;;;;;;;13.43;9.88;;;;;;;19.57;73.38;95317.53;5046382;28;20526;-84
2022/08/24 02:35:04;;;;;;;12.85;10.13;;;;;;;19.58;73.46;95319.19;5047063;28;20036;-84
2022/08/24 02:37:30;;;;;;;14.15;10.23;;;;;;;19.62;73.56;95314.09;5046260;28;20524;-83
2022/08/24 02:39:55;;;;;;;17.55;10.60;;;;;;;19.70;73.38;95311.00;5046990;28;20024;-83
2022/08/24 02:42:20;;;;;;;14.38;9.55;;;;;;;19.68;73.28;95315.03;5046538;28;20028;-82
2022/08/24 02:44:46;;;;;;;14.07;9.45;;;;;;;19.61;73.48;95302.41;5046415;28;20025;-82
2022/08/24 02:47:12;;;;;;;13.75;9.90;;;;;;;19.57;73.66;95314.81;5046156;28;20055;-84
2022/08/24 02:49:37;;;;;;;14.25;10.63;;;;;;;19.59;73.78;95312.69;5047017;28;20032;-83
2022/08/24 02:52:03;;;;;;;12.55;10.00;;;;;;;19.60;73.81;95318.97;5046724;28;20519;-83
2022/08/24 02:54:28;;;;;;;14.73;10.40;;;;;;;19.66;73.49;95319.88;5046436;28;20686;-84
2022/08/24 02:56:54;;;;;;;14.90;10.23;;;;;;;19.66;73.42;95312.56;5047368;28;20024;-83
2022/08/24 02:59:19;;;;;;;17.38;10.23;;;;;;;19.71;73.46;95322.72;5045862;28;20108;-83
2022/08/24 03:01:45;;;;;;;17.45;10.18;;;;;;;19.66;73.38;95323.44;5047404;28;20491;-83
2022/08/24 03:04:11;;;;;;;15.18;10.60;;;;;;;19.74;73.13;95320.38;5046389;28;20029;-83
2022/08/24 03:06:36;;;;;;;19.55;10.40;;;;;;;19.77;72.82;95319.06;5047250;28;20029;-82
2022/08/24 03:09:02;;;;;;;15.45;10.18;;;;;;;19.71;73.05;95326.28;5045826;28;20033;-82
2022/08/24 03:11:27;;;;;;;14.77;10.15;;;;;;;19.73;73.08;95320.59;5046595;28;20021;-82
2022/08/24 03:13:54;;;;;;;14.45;9.60;;;;;;;19.73;72.94;95315.97;5046582;28;20029;-83
2022/08/24 03:16:19;;;;;;;14.52;10.25;;;;;;;19.77;72.95;95313.63;5045812;28;20529;-85
2022/08/24 03:18:45;;;;;;;18.23;10.15;;;;;;;19.74;72.92;95320.38;5045728;28;20025;-83
2022/08/24 03:21:10;;;;;;;14.88;10.48;;;;;;;19.77;72.67;95329.94;5045716;28;20029;-84
2022/08/24 03:23:36;;;;;;;13.02;10.23;;;;;;;19.74;73.07;95319.53;5046498;28;20435;-84
2022/08/24 03:26:01;;;;;;;11.85;9.18;;;;;;;19.78;72.62;95320.69;5046025;28;20025;-83
2022/08/24 03:28:27;;;;;;;11.90;8.45;;;;;;;19.77;72.27;95319.88;5045948;28;20040;-83
2022/08/24 03:30:53;;;;;;;12.63;8.85;;;;;;;19.80;72.33;95312.31;5045683;28;20021;-84
2022/08/24 03:33:18;;;;;;;11.85;7.70;;;;;;;19.76;72.41;95320.94;5045762;28;20048;-84
2022/08/24 03:35:44;;;;;;;10.45;8.15;;;;;;;19.78;72.45;95320.69;5046656;28;20389;-83
2022/08/24 03:38:09;;;;;;;13.68;8.50;;;;;;;19.79;72.27;95316.09;5045886;28;20024;-84
2022/08/24 03:40:34;;;;;;;9.95;8.35;;;;;;;19.81;72.09;95331.13;5046298;28;20021;-83
2022/08/24 03:43:00;;;;;;;13.68;9.13;;;;;;;19.69;72.72;95331.13;5045697;28;20112;-83
2022/08/24 03:45:28;;;;;;;12.32;9.02;;;;;;;19.70;72.75;95329.25;5046132;28;20021;-84
2022/08/24 03:47:54;;;;;;;12.50;9.07;;;;;;;19.67;73.01;95330.53;5045522;28;20495;-83
2022/08/24 03:50:20;;;;;;;15.05;8.80;;;;;;;19.69;72.84;95336.56;5046102;28;20022;-83
2022/08/24 03:52:46;;;;;;;13.32;8.65;;;;;;;19.68;73.06;95342.25;5045653;28;20131;-83
2022/08/24 03:55:12;;;;;;;13.75;8.85;;;;;;;19.72;72.88;95335.25;5047231;28;20032;-83
2022/08/24 03:57:38;;;;;;;12.77;8.80;;;;;;;19.67;73.20;95329.72;5050274;28;20043;-83
2022/08/24 04:00:04;;;;;;;12.40;8.75;;;;;;;19.63;73.36;95330.19;5049620;28;20025;-83
2022/08/24 04:02:29;;;;;;;11.90;8.98;;;;;;;19.70;73.17;95331.97;5049879;28;20032;-83
2022/08/24 04:04:54;;;;;;;12.10;9.00;;;;;;;19.71;73.01;95323.56;5051978;28;20033;-82
2022/08/24 04:07:20;;;;;;;12.35;9.30;;;;;;;19.72;73.02;95330.66;5054903;28;20036;-82
2022/08/24 04:09:46;;;;;;;12.27;9.00;;;;;;;19.72;73.23;95332.53;5053639;28;20495;-82
2022/08/24 04:12:11;;;;;;;10.82;8.55;;;;;;;19.77;72.88;95335.38;5053336;28;20056;-82
2022/08/24 04:14:37;;;;;;;11.38;8.30;;;;;;;19.75;73.00;95345.66;5051930;28;20029;-84
2022/08/24 04:17:03;;;;;;;11.88;8.90;;;;;;;19.77;72.83;95346.25;5051033;28;20037;-82
2022/08/24 04:19:29;;;;;;;11.55;8.60;;;;;;;19.80;72.49;95336.81;5049967;28;20573;-83
2022/08/24 04:21:56;;;;;;;11.07;8.68;;;;;;;19.73;72.15;95343.19;5048344;28;20032;-82
2022/08/24 04:24:22;;;;;;;9.98;8.27;;;;;;;19.79;71.85;95346.84;5049596;28;20021;-83
2022/08/24 04:26:47;;;;;;;10.15;8.68;;;;;;;19.77;72.29;95341.66;5048359;28;20032;-83
2022/08/24 04:29:13;;;;;;;12.35;8.88;;;;;;;19.74;72.18;95346.75;5049368;28;20029;-84
2022/08/24 04:31:42;;;;;;;12.82;8.70;;;;;;;19.80;72.94;95350.41;5048392;28;20032;-81
2022/08/24 04:34:08;;;;;;;12.18;9.50;;;;;;;19.79;72.14;95359.63;5049331;28;20032;-84
2022/08/24 04:36:34;;;;;;;10.40;8.85;;;;;;;19.80;72.12;95350.41;5049508;28;20519;-82
2022/08/24 04:39:00;;;;;;;13.43;9.32;;;;;;;19.77;71.89;95346.25;5048403;28;20107;-83
2022/08/24 04:41:25;;;;;;;12.48;9.23;;;;;;;19.82;71.34;95351.81;5049568;28;20025;-83
2022/08/24 04:43:50;;;;;;;14.50;9.48;;;;;;;19.73;71.34;95351.34;5048504;28;20059;-83
2022/08/24 04:46:17;;;;;;;14.05;9.02;;;;;;;19.71;71.66;95352.66;5049160;28;20484;-83
2022/08/24 04:48:43;;;;;;;11.95;9.13;;;;;;;19.67;71.74;95362.38;5048160;28;20032;-83
2022/08/24 04:51:10;;;;;;;15.07;10.05;;;;;;;19.74;71.73;95357.63;5048705;28;20120;-85
2022/08/24 04:53:35;;;;;;;11.07;8.68;;;;;;;19.78;71.41;95358.78;5048767;28;20522;-84
2022/08/24 04:56:01;;;;;;;10.50;9.02;;;;;;;19.74;71.17;95349.47;5047792;28;20115;-84
2022/08/24 04:58:27;;;;;;;14.73;9.43;;;;;;;19.76;71.38;95348.16;5049116;28;20056;-84
2022/08/24 05:00:53;;;;;;;11.20;9.07;;;;;;;19.70;71.59;95340.13;5047502;28;20080;-83
2022/08/24 05:03:19;;;;;;;13.70;9.20;;;;;;;19.75;71.60;95337.50;5048854;28;20021;-83
2022/08/24 05:05:45;;;;;;;11.50;9.10;;;;;;;19.78;71.59;95353.34;5047612;28;20139;-83
2022/08/24 05:08:11;;;;;;;14.30;9.30;;;;;;;19.81;71.53;95352.91;5047778;28;20403;-83
2022/08/24 05:10:41;;;;;;;11.82;8.18;;;;;;;19.89;71.60;95347.06;5047867;28;20506;-83
2022/08/24 05:13:07;;;;;;;13.15;9.13;;;;;;;19.91;71.59;95351.47;5047734;28;20025;-83
2022/08/24 05:15:33;;;;;;;11.23;8.77;;;;;;;19.96;71.42;95354.28;5048635;28;20043;-83
2022/08/24 05:17:59;;;;;;;13.48;9.13;;;;;;;20.00;71.94;95347.31;5047619;28;20430;-82
2022/08/24 05:20:25;;;;;;;11.15;9.10;;;;;;;20.04;72.08;95345.78;5048465;28;20025;-82
2022/08/24 05:22:52;;;;;;;12.23;9.07;;;;;;;20.09;71.28;95342.34;5047177;28;20503;-82
2022/08/24 05:25:17;;;;;;;11.02;9.02;;;;;;;20.20;71.65;95348.84;5048009;28;20134;-81
2022/08/24 05:27:43;;;;;;;12.43;9.10;;;;;;;20.15;71.75;95341.41;5047278;28;20490;-82
2022/08/24 05:30:09;;;;;;;10.80;9.00;;;;;;;20.20;71.42;95337.97;5047838;28;20549;-82
2022/08/24 05:32:35;;;;;;;10.57;8.88;;;;;;;20.32;71.54;95341.47;5047752;28;20106;-82
2022/08/24 05:35:03;;;;;;;11.10;8.45;;;;;;;20.33;71.58;95343.13;5047248;28;20021;-84
2022/08/24 05:37:29;;;;;;;10.85;8.30;;;;;;;20.37;71.42;95338.84;5048223;28;20503;-83
2022/08/24 05:39:54;;;;;;;11.88;8.45;;;;;;;20.35;71.36;95335.53;5047191;28;20521;-82
2022/08/24 05:42:20;;;;;;;11.82;7.82;;;;;;;20.13;72.00;95338.91;5048531;28;20021;-82
2022/08/24 05:44:45;;;;;;;11.73;7.82;;;;;;;20.34;71.33;95333.91;5047417;28;20028;-83
2022/08/24 05:47:11;;;;;;;10.73;8.10;;;;;;;20.51;71.64;95333.09;5047317;28;20032;-83
2022/08/24 05:49:36;;;;;;;10.63;8.07;;;;;;;20.57;71.26;95337.56;5047040;28;20025;-83
2022/08/24 05:52:02;;;;;;;10.27;8.05;;;;;;;20.71;70.75;95332.69;5047089;28;20452;-83
2022/08/24 05:54:27;;;;;;;9.35;7.90;;;;;;;20.88;70.75;95343.59;5047984;28;20120;-83
2022/08/24 05:56:53;;;;;;;11.02;7.60;;;;;;;20.94;70.10;95338.28;5046906;28;20021;-82
2022/08/24 05:59:19;;;;;;;9.48;7.50;;;;;;;21.12;69.72;95337.22;5047512;28;20476;-84
2022/08/24 06:01:45;;;;;;;8.35;7.22;;;;;;;21.18;69.10;95336.25;5046795;28;20334;-83
2022/08/24 06:04:11;;;;;;;9.55;7.45;;;;;;;21.27;69.33;95331.19;5047466;28;20385;-82
2022/08/24 06:06:36;;;;;;;11.60;7.22;;;;;;;21.29;68.45;95325.50;5046829;28;20025;-82
2022/08/24 06:09:02;;;;;;;8.75;7.20;;;;;;;21.43;68.30;95323.25;5046737;28;20029;-82
2022/08/24 06:11:33;;;;;;;9.73;6.72;;;;;;;21.53;68.42;95336.22;5046993;28;20033;-83
2022/08/24 06:14:01;;;;;;;9.57;6.63;;;;;;;21.60;68.45;95332.25;5046710;28;20083;-82
2022/08/24 06:16:27;;;;;;;10.15;6.85;;;;;;;21.50;68.69;95329.38;5047717;28;20025;-83
2022/08/24 06:18:53;;;;;;;9.82;6.80;;;;;;;21.55;68.23;95329.47;5046013;28;20029;-83
2022/08/24 06:21:20;;;;;;;9.20;6.70;;;;;;;21.77;67.47;95328.72;5047067;28;20017;-82
2022/08/24 06:23:46;;;;;;;8.88;6.55;;;;;;;21.70;67.52;95328.84;5046165;28;20036;-83
2022/08/24 06:28:55;;;;;;;7.93;6.13;;;;;;;21.91;66.41;95326.44;5047325;28;20032;-84
2022/08/24 06:31:23;;;;;;;7.40;5.38;;;;;;;22.11;65.77;95325.06;5046180;28;20029;-83
2022/08/24 06:33:48;;;;;;;6.40;5.07;;;;;;;22.02;64.66;95319.19;5047080;28;20051;-83
2022/08/24 06:36:14;;;;;;;8.93;5.45;;;;;;;22.04;64.11;95325.25;5046217;28;20037;-83
2022/08/24 06:38:39;;;;;;;6.88;5.35;;;;;;;22.05;64.67;95320.63;5047794;28;20024;-83
2022/08/24 06:41:05;;;;;;;7.82;6.03;;;;;;;22.14;63.67;95315.53;5046438;28;20021;-83
2022/08/24 06:43:30;;;;;;;7.40;5.32;;;;;;;22.29;63.33;95314.91;5046585;28;20053;-83
2022/08/24 06:45:56;;;;;;;6.78;4.85;;;;;;;22.40;63.77;95321.31;5046509;28;20036;-83
2022/08/24 06:48:22;;;;;;;7.15;5.07;;;;;;;22.53;63.83;95320.94;5046170;28;20033;-83
2022/08/24 06:50:48;;;;;;;6.30;4.75;;;;;;;22.62;63.07;95329.50;5046983;28;20025;-83
2022/08/24 06:53:15;;;;;;;7.18;5.03;;;;;;;22.72;62.59;95328.78;5046112;28;20034;-84
2022/08/24 06:55:51;;;;;;;6.68;4.68;;;;;;;22.60;61.80;95337.16;5046854;28;20025;-82
2022/08/24 06:58:17;;;;;;;9.57;4.80;;;;;;;22.78;61.17;95333.22;5045515;28;20025;-83
2022/08/24 07:00:43;;;;;;;10.70;4.53;;;;;;;23.00;60.71;95335.09;5046375;28;20470;-83
2022/08/24 07:03:08;;;;;;;6.32;4.40;;;;;;;23.04;59.90;95335.38;5045841;28;20025;-83
2022/08/24 07:05:34;;;;;;;6.22;4.30;;;;;;;22.85;59.63;95338.50;5046649;28;20044;-83
2022/08/24 07:08:00;;;;;;;7.32;4.60;;;;;;;22.78;60.41;95343.34;5046049;28;20583;-83
2022/08/24 07:10:26;;;;;;;5.47;4.20;;;;;;;22.69;61.19;95342.97;5045328;28;20025;-82
2022/08/24 07:12:52;;;;;;;5.70;4.38;;;;;;;22.82;60.36;95352.69;5046569;28;20028;-83
2022/08/24 07:15:18;;;;;;;7.57;5.10;;;;;;;22.80;60.12;95344.75;5045296;28;20079;-83
2022/08/24 07:17:44;;;;;;;6.28;4.90;;;;;;;22.53;61.79;95350.16;5046058;28;20422;-83
2022/08/24 07:20:11;;;;;;;6.45;4.50;;;;;;;22.59;60.79;95352.72;5045436;28;20029;-82
2022/08/24 07:22:36;;;;;;;5.30;4.40;;;;;;;22.54;62.40;95358.09;5045620;28;20463;-82
2022/08/24 07:25:02;;;;;;;7.20;4.65;;;;;;;22.57;61.38;95354.03;5045417;28;20033;-83
2022/08/24 07:27:28;;;;;;;5.57;4.03;;;;;;;22.72;61.38;95367.06;5045460;28;20039;-82
2022/08/24 07:29:53;;;;;;;9.00;4.93;;;;;;;22.64;60.38;95362.88;5048826;28;20025;-84
2022/08/24 07:32:19;;;;;;;6.18;4.28;;;;;;;22.92;59.68;95361.00;5051784;28;20049;-83
2022/08/24 07:34:45;;;;;;;6.10;4.60;;;;;;;23.16;59.76;95357.13;5052775;28;20029;-82
2022/08/24 07:37:10;;;;;;;8.57;4.43;;;;;;;23.24;59.61;95359.38;5051927;28;20032;-84
2022/08/24 07:39:36;;;;;;;7.85;5.22;;;;;;;23.28;60.55;95363.25;5052394;28;20074;-83
2022/08/24 07:42:01;;;;;;;7.53;4.85;;;;;;;23.43;59.23;95351.63;5051872;28;20396;-83
2022/08/24 07:44:26;;;;;;;7.20;4.20;;;;;;;23.71;58.41;95355.13;5052577;28;20082;-82
2022/08/24 07:46:52;;;;;;;8.23;4.60;;;;;;;23.95;57.47;95349.25;5052172;28;20022;-83
2022/08/24 07:49:17;;;;;;;8.50;4.50;;;;;;;24.02;56.34;95349.00;5052057;28;20029;-82
2022/08/24 07:51:43;;;;;;;5.15;4.13;;;;;;;24.07;56.94;95342.72;5052588;28;20024;-83
2022/08/24 07:54:08;;;;;;;8.48;4.57;;;;;;;24.16;57.40;95348.56;5051762;28;20029;-83
2022/08/24 07:56:34;;;;;;;8.82;4.40;;;;;;;23.95;57.24;95337.47;5052403;28;20037;-83
2022/08/24 07:58:59;;;;;;;8.40;4.72;;;;;;;23.72;57.24;95339.53;5051659;28;20182;-84
2022/08/24 08:01:25;;;;;;;7.13;4.50;;;;;;;23.38;58.19;95337.03;5052650;28;20423;-83
2022/08/24 08:03:51;;;;;;;7.07;4.20;;;;;;;23.47;58.68;95338.25;5051552;28;20031;-83
2022/08/24 08:06:17;;;;;;;7.05;4.45;;;;;;;23.44;59.05;95331.38;5052383;28;20031;-83
2022/08/24 08:08:43;;;;;;;8.60;4.43;;;;;;;23.62;58.35;95331.25;5051892;28;20094;-83
2022/08/24 08:11:09;;;;;;;10.52;4.65;;;;;;;23.51;59.17;95317.47;5051788;28;20021;-83
2022/08/24 08:13:35;;;;;;;12.73;5.65;;;;;;;23.52;58.71;95318.31;5053359;28;20032;-83
2022/08/24 08:16:02;;;;;;;12.88;5.10;;;;;;;23.64;58.17;95321.69;5051670;28;20017;-83
2022/08/24 08:18:28;;;;;;;7.72;4.60;;;;;;;23.57;58.36;95321.06;5052429;28;20057;-83
2022/08/24 08:20:53;;;;;;;8.75;4.15;;;;;;;23.98;56.75;95323.25;5051121;28;20464;-84
2022/08/24 08:26:03;;;;;;;9.00;3.42;;;;;;;24.55;53.09;95307.06;5051897;28;20503;-83
2022/08/24 08:28:31;;;;;;;9.40;3.58;;;;;;;24.57;52.52;95321.34;5051900;28;20049;-84
2022/08/24 08:30:58;;;;;;;3.67;2.30;;;;;;;24.73;51.91;95313.13;5052116;28;20476;-84
2022/08/24 08:33:23;;;;;;;3.30;2.50;;;;;;;24.79;50.04;95317.56;5050875;28;20431;-83
2022/08/24 08:35:49;;;;;;;5.38;2.70;;;;;;;24.66;50.29;95315.31;5052252;28;20517;-83
2022/08/24 08:38:14;;;;;;;4.80;2.70;;;;;;;24.53;51.10;95317.50;5051259;28;20435;-83
2022/08/24 08:41:17;;;;;;;6.03;2.92;;;;;;;24.61;50.37;95316.13;5051194;28;20153;-83
2022/08/24 08:43:43;;;;;;;6.40;2.58;;;;;;;24.72;51.41;95313.41;5049035;28;20032;-83
2022/08/24 08:46:24;;;;;;;9.38;2.80;;;;;;;24.78;50.70;95310.41;5047817;28;20317;-83
2022/08/24 08:48:59;;;;;;;8.52;2.72;;;;;;;24.72;50.80;95311.50;5047595;28;20060;-83
2022/08/24 08:51:28;;;;;;;5.45;3.25;;;;;;;24.84;50.42;95305.78;5046973;28;20056;-83
2022/08/24 08:54:13;;;;;;;6.65;2.95;;;;;;;24.87;50.49;95315.38;5048609;28;20052;-83
2022/08/24 08:56:50;;;;;;;5.25;3.10;;;;;;;24.85;50.89;95307.41;5047043;28;20486;-83
2022/08/24 08:59:19;;;;;;;3.42;2.60;;;;;;;24.78;50.83;95302.19;5046296;28;20103;-83
2022/08/24 09:02:25;;;;;;;5.50;2.95;;;;;;;24.79;51.00;95311.25;5047585;28;20094;-83
2022/08/24 09:05:28;;;;;;;4.95;2.72;;;;;;;24.59;51.79;95309.25;5046734;28;20025;-83
2022/08/24 09:08:27;;;;;;;7.40;2.60;;;;;;;24.61;51.53;95312.56;5047221;28;20029;-84
2022/08/24 09:11:04;;;;;;;7.55;3.30;;;;;;;24.75;50.70;95312.88;5048607;28;20036;-83
2022/08/24 09:13:30;;;;;;;5.30;2.80;;;;;;;24.73;51.14;95326.03;5047763;28;20102;-83
2022/08/24 09:15:56;;;;;;;6.20;2.45;;;;;;;24.58;50.47;95316.69;5047733;28;20029;-83
2022/08/24 09:18:27;;;;;;;2.83;2.30;;;;;;;24.71;50.80;95320.84;5047985;28;20033;-83
2022/08/24 09:21:14;;;;;;;13.20;3.75;;;;;;;24.85;51.10;95314.81;5047527;28;20025;-83
2022/08/24 09:23:47;;;;;;;7.80;3.45;;;;;;;25.00;50.12;95317.63;5047241;28;20035;-82
2022/08/24 09:26:34;;;;;;;4.90;2.75;;;;;;;24.96;50.70;95319.25;5047884;28;20051;-83
2022/08/24 09:29:03;;;;;;;3.70;2.65;;;;;;;25.05;50.80;95320.34;5046240;28;20043;-83
2022/08/24 09:31:56;;;;;;;3.72;2.65;;;;;;;25.15;50.02;95311.31;5048269;28;20033;-84
2022/08/24 09:34:50;;;;;;;6.50;3.65;;;;;;;25.22;50.12;95308.31;5045752;28;20170;-84
2022/08/24 09:37:18;;;;;;;6.00;2.92;;;;;;;25.16;51.46;95304.75;5046215;28;20048;-84
2022/08/24 09:39:53;;;;;;;4.38;2.95;;;;;;;25.29;51.95;95308.84;5047627;28;20025;-83
2022/08/24 09:42:30;;;;;;;4.40;3.05;;;;;;;25.26;49.82;95306.66;5047471;28;20125;-82
2022/08/24 09:45:04;;;;;;;7.05;3.20;;;;;;;25.30;50.69;95301.44;5048609;28;20032;-83
2022/08/24 09:47:41;;;;;;;11.27;3.33;;;;;;;25.03;52.21;95295.13;5047108;28;20029;-84
2022/08/24 09:50:49;;;;;;;8.85;3.92;;;;;;;25.40;50.97;95297.88;5047441;28;20033;-85
2022/08/24 09:53:51;;;;;;;10.52;3.33;;;;;;;25.53;50.25;95291.00;5046222;28;20538;-82
2022/08/24 09:56:44;;;;;;;6.18;3.20;;;;;;;25.51;49.79;95284.94;5045155;28;20044;-83
2022/08/24 09:59:38;;;;;;;6.45;3.63;;;;;;;25.59;50.54;95281.66;5047321;28;20033;-83
2022/08/24 10:02:18;;;;;;;4.47;2.70;;;;;;;25.53;50.95;95269.88;5048032;28;20371;-84
2022/08/24 10:05:08;;;;;;;6.25;3.20;;;;;;;25.74;50.00;95266.28;5046830;28;20032;-83
2022/08/24 10:08:03;;;;;;;4.32;2.97;;;;;;;25.80;49.61;95262.41;5047242;28;20039;-84
2022/08/24 10:10:35;;;;;;;6.50;3.50;;;;;;;25.82;49.65;95254.72;5045917;28;20029;-83
2022/08/24 10:13:16;;;;;;;9.18;3.80;;;;;;;25.96;48.77;95252.19;5046258;28;20409;-84
2022/08/24 10:15:53;;;;;;;5.53;3.38;;;;;;;26.00;48.27;95256.03;5047432;28;20072;-84
2022/08/24 10:18:49;;;;;;;8.82;3.33;;;;;;;25.97;46.99;95256.56;5044777;28;20028;-83
2022/08/24 10:21:56;;;;;;;5.47;3.20;;;;;;;26.02;47.03;95247.53;5044827;28;20104;-84
2022/08/24 10:24:28;;;;;;;8.05;3.95;;;;;;;26.04;47.61;95242.53;5045871;28;20040;-84
2022/08/24 10:27:21;;;;;;;4.60;3.22;;;;;;;26.04;48.07;95234.31;5046724;28;20122;-84
2022/08/24 10:30:15;;;;;;;15.25;4.13;;;;;;;26.10;49.55;95237.88;5046376;28;20079;-84
2022/08/24 10:32:59;;;;;;;5.55;3.55;;;;;;;26.16;48.98;95245.81;5029000;28;20091;-83
2022/08/24 10:35:44;;;;;;;13.90;3.75;;;;;;;26.13;48.90;95242.78;5045903;28;20054;-83
2022/08/24 10:41:57;;;;;;;5.38;3.63;;;;;;;25.84;48.72;95254.44;5046791;28;20040;-83
2022/08/24 10:44:28;;;;;;;11.75;3.55;;;;;;;25.71;49.47;95248.44;5045752;28;20036;-84
2022/08/24 10:46:58;;;;;;;12.55;4.28;;;;;;;25.64;49.73;95245.16;5046550;28;20029;-83
2022/08/24 10:49:36;;;;;;;6.15;3.45;;;;;;;25.61;50.89;95243.75;5046394;28;20503;-82
2022/08/24 10:52:32;;;;;;;7.35;3.67;;;;;;;25.67;49.13;95242.69;5045608;28;20407;-82
2022/08/24 10:55:14;;;;;;;4.18;3.10;;;;;;;25.57;49.56;95242.66;5046595;28;20044;-83
2022/08/24 10:57:47;;;;;;;7.18;3.50;;;;;;;25.62;49.65;95250.09;5044855;28;20021;-82
2022/08/24 11:00:14;;;;;;;6.80;3.50;;;;;;;25.49;48.92;95255.03;5028862;28;20041;-83
2022/08/24 11:02:43;;;;;;;13.43;3.75;;;;;;;25.44;49.50;95255.03;5046521;28;20028;-82
2022/08/24 11:05:14;;;;;;;22.73;4.55;;;;;;;25.44;49.77;95244.06;5043497;28;20029;-83
2022/08/24 11:07:55;;;;;;;14.75;4.00;;;;;;;25.44;49.23;95252.28;5045210;28;20116;-83
2022/08/24 11:10:28;;;;;;;8.75;3.65;;;;;;;25.47;49.77;95246.25;5044469;28;20033;-83
2022/08/24 11:12:54;;;;;;;9.32;3.30;;;;;;;25.42;49.70;95249.03;5046179;28;20055;-83
2022/08/24 11:15:22;;;;;;;5.25;3.22;;;;;;;25.40;49.60;95248.47;5046415;28;20052;-83
2022/08/24 11:18:00;;;;;;;5.70;3.63;;;;;;;25.58;48.74;95240.75;5045647;28;20021;-82
2022/08/24 11:20:40;;;;;;;7.20;3.38;;;;;;;25.72;49.11;95239.09;5047191;28;20555;-83
2022/08/24 11:23:17;;;;;;;6.32;3.83;;;;;;;25.90;50.85;95228.59;5046023;28;20052;-83
2022/08/24 11:26:04;;;;;;;6.30;3.40;;;;;;;26.05;48.80;95230.47;5044523;28;20029;-83
2022/08/24 11:28:49;;;;;;;6.60;3.60;;;;;;;26.15;48.15;95227.66;5046071;28;20037;-84
2022/08/24 11:31:41;;;;;;;8.40;3.60;;;;;;;26.16;48.03;95231.25;5043969;28;20455;-83
2022/08/24 11:34:09;;;;;;;7.85;3.22;;;;;;;26.18;47.50;95231.78;5045659;28;20045;-81
2022/08/24 11:36:36;;;;;;;7.90;3.00;;;;;;;26.35;48.71;95236.13;5045933;28;20044;-84
2022/08/24 11:39:13;;;;;;;6.95;3.20;;;;;;;26.36;48.93;95229.53;5045741;28;20029;-82
2022/08/24 11:41:51;;;;;;;14.95;4.35;;;;;;;26.51;49.01;95226.69;5045780;28;20041;-83
2022/08/24 11:44:57;;;;;;;7.25;3.88;;;;;;;26.67;48.35;95226.56;5043817;28;20056;-83
2022/08/24 11:47:25;;;;;;;11.43;4.40;;;;;;;26.52;48.76;95233.00;5045411;28;20037;-83
2022/08/24 11:50:29;;;;;;;9.55;4.18;;;;;;;26.38;48.65;95219.06;5045199;28;20522;-82
2022/08/24 11:53:30;;;;;;;9.52;4.45;;;;;;;26.39;48.54;95217.97;5043794;28;20120;-83